Details for QantasLink at YPAD




Go Back


Latest METAR
Local Time

YPAD 180400Z 12003KT 9999 FEW025 SCT036 BKN060 23/16 Q1011 FM0500 21014KT 9999 -SHRA FEW045

18/02/2018, 14:58:33

Description
Results
QantasLink Logo
Number of Pilots based at YPAD
0 Pilots Based here
Number of QantasLink Flights Departed from YPAD
0 Flights Departed
Number of QantasLink Flights Arrived at YPAD
0 Flights Arrived
Number of QantasLink Schedules Departing from YPAD
19 Schedules
Number of QantasLink Schedules Arriving at YPAD
18 Schedules
Number of QantasLink Schedules Departing from YPAD availible today
8 Schedules Today
Number of QantasLink Schedules Arriving at YPAD availible today
7 Schedules Today
Average Landing Rate at YPAD
-92 fpm
QantasLink Average Landing Rate at YPAD
0 fpm
Total Fuel Purchased at YPAD by QantasLink
0.00 kgs / 0.00 lbs

Pilots Based at YPAD


Pilot ID
Pilot Name
Pilot Rank
No. of Flights
No. of Flying Hours
There are no pilots assigned to this hub!   Will you be the first?
Content